Alta, California
Current Conditions -  °F | °C
As of 8:52 AM on Thursday 30 Oct 2014 (Local Time) from KBLU Reporting Station
Clear Clear  
Wind Chill: 58°   Ceiling: Unl
Heat Index: 58°   Visibility: 10mi
Dew Point: 29°   Wind: 5mph
Humidity: 33%   Direction: 120°ESE
Pressure: 30.16"   Gusts: NA
Location:  39.21°N, 120.81°W
Report Text: KBLU 301552Z AUTO 12004KT 10SM CLR 14/M02 A3016 RMK AO2 SLP152 T01441017
Loading
Personal Weather Stations






























Interactive Weather Map
Tropical Storm Tracking
New forecast layout! Learn more

10-Day Weather Forecast

Advertisements
Track Severe Weather on mobile